createdAt,value
2019-02-17T00:03:11.282Z,27.60
2019-02-17T00:08:15.003Z,28.80
2019-02-17T00:13:18.681Z,29.77
2019-02-17T00:18:22.375Z,29.23
2019-02-17T00:23:26.106Z,28.60
2019-02-17T00:28:29.792Z,29.53
2019-02-17T00:33:33.464Z,28.10
2019-02-17T00:38:37.148Z,29.07
2019-02-17T00:43:40.957Z,31.13
2019-02-17T00:48:44.660Z,29.67
2019-02-17T00:53:48.623Z,30.90
2019-02-17T00:58:52.304Z,30.27
2019-02-17T01:03:56.028Z,29.90
2019-02-17T01:08:59.705Z,28.37
2019-02-17T01:14:03.740Z,29.83
2019-02-17T01:19:07.654Z,30.17
2019-02-17T01:24:11.322Z,30.07
2019-02-17T01:29:20.378Z,30.33
2019-02-17T01:34:20.414Z,29.97
2019-02-17T01:39:24.213Z,30.10
2019-02-17T01:44:27.930Z,30.50
2019-02-17T01:49:31.647Z,31.27
2019-02-17T01:54:35.358Z,30.50
2019-02-17T01:59:39.323Z,32.73
2019-02-17T02:04:43.149Z,33.53
2019-02-17T02:09:46.851Z,32.43
2019-02-17T02:14:50.574Z,32.57
2019-02-17T02:19:54.289Z,31.97
2019-02-17T02:24:58.043Z,32.63
2019-02-17T02:30:02.137Z,33.90
2019-02-17T02:35:06.538Z,32.50
2019-02-17T02:40:10.246Z,32.53
2019-02-17T02:45:14.002Z,32.77
2019-02-17T02:50:17.702Z,33.27
2019-02-17T02:55:21.354Z,32.37
2019-02-17T03:00:25.308Z,33.10
2019-02-17T03:05:29.065Z,33.37
2019-02-17T03:10:32.746Z,33.87
2019-02-17T03:15:36.448Z,34.80
2019-02-17T03:20:40.177Z,34.47
2019-02-17T03:25:45.335Z,35.00
2019-02-17T03:30:49.312Z,33.30
2019-02-17T03:35:53.020Z,32.97
2019-02-17T03:40:57.187Z,31.77
2019-02-17T03:46:00.885Z,34.83
2019-02-17T03:51:04.863Z,34.30
2019-02-17T03:56:08.840Z,34.37
2019-02-17T04:01:12.845Z,35.83
2019-02-17T04:06:16.557Z,36.80
2019-02-17T04:11:20.335Z,34.23
2019-02-17T04:16:24.026Z,35.50
2019-02-17T04:21:27.988Z,34.17
2019-02-17T04:26:31.978Z,35.30
2019-02-17T04:31:35.979Z,33.30
2019-02-17T04:36:39.714Z,34.13
2019-02-17T04:41:43.437Z,38.30
2019-02-17T04:46:47.123Z,34.53
2019-02-17T04:51:51.097Z,36.10
2019-02-17T04:56:54.866Z,34.10
2019-02-17T05:01:58.530Z,36.33
2019-02-17T05:07:02.599Z,33.87
2019-02-17T05:12:06.347Z,35.63
2019-02-17T05:17:10.030Z,36.00
2019-02-17T05:22:13.693Z,37.97
2019-02-17T05:27:17.394Z,37.17
2019-02-17T05:32:21.103Z,36.03
2019-02-17T05:37:24.800Z,34.30
2019-02-17T05:42:28.748Z,34.73
2019-02-17T05:47:32.405Z,34.50
2019-02-17T05:52:36.328Z,35.60
2019-02-17T05:57:40.005Z,35.87
2019-02-17T06:02:43.764Z,34.13
2019-02-17T06:07:47.466Z,33.53
2019-02-17T06:12:51.152Z,33.57
2019-02-17T06:17:55.121Z,36.10
2019-02-17T06:22:58.840Z,36.87
2019-02-17T06:28:02.982Z,35.47
2019-02-17T06:33:06.946Z,36.97
2019-02-17T06:38:10.694Z,36.43
2019-02-17T06:43:14.437Z,36.20
2019-02-17T06:48:18.163Z,37.50
2019-02-17T06:53:21.867Z,38.13
2019-02-17T06:58:26.061Z,38.90
2019-02-17T07:03:30.420Z,37.87
2019-02-17T07:08:34.130Z,39.37
2019-02-17T07:13:37.861Z,38.97
2019-02-17T07:18:41.882Z,41.07
2019-02-17T07:23:45.580Z,38.57
2019-02-17T07:28:49.501Z,37.50
2019-02-17T07:33:53.472Z,36.80
2019-02-17T07:38:57.228Z,33.67
2019-02-17T07:44:00.980Z,34.23
2019-02-17T07:49:05.038Z,30.33
2019-02-17T07:54:08.798Z,31.60
2019-02-17T07:59:13.104Z,29.40
2019-02-17T08:04:17.007Z,29.10
2019-02-17T08:09:20.871Z,29.50
2019-02-17T08:14:24.652Z,28.33
2019-02-17T08:19:28.957Z,28.70
2019-02-17T08:24:32.825Z,29.27
2019-02-17T08:29:36.611Z,28.93
2019-02-17T08:34:40.495Z,26.50
2019-02-17T08:39:44.233Z,29.53
2019-02-17T08:44:48.089Z,28.97
2019-02-17T08:49:51.873Z,28.87
2019-02-17T08:54:55.618Z,29.17
2019-02-17T08:59:59.589Z,28.77
2019-02-17T09:05:03.746Z,29.77
2019-02-17T09:10:09.107Z,28.63
2019-02-17T09:15:13.037Z,29.13
2019-02-17T09:20:16.789Z,28.17
2019-02-17T09:25:20.553Z,28.67
2019-02-17T09:30:24.308Z,29.40
2019-02-17T09:35:28.401Z,30.43
2019-02-17T09:40:32.781Z,28.30
2019-02-17T09:45:36.490Z,27.30
2019-02-17T09:50:40.529Z,27.98
2019-02-17T09:55:44.315Z,28.05
2019-02-17T10:00:48.092Z,27.67
2019-02-17T10:05:51.809Z,27.62
2019-02-17T10:10:55.530Z,27.62
2019-02-17T10:15:59.536Z,25.72
2019-02-17T10:21:03.333Z,26.55
2019-02-17T10:26:07.545Z,25.25
2019-02-17T10:31:11.269Z,26.23
2019-02-17T10:36:15.077Z,25.82
2019-02-17T10:41:18.833Z,24.72
2019-02-17T10:46:22.577Z,25.23
2019-02-17T10:51:26.622Z,24.72
2019-02-17T10:56:30.352Z,23.85
2019-02-17T11:01:34.371Z,24.95
2019-02-17T11:06:38.183Z,24.32
2019-02-17T11:11:41.975Z,24.77
2019-02-17T11:16:45.709Z,23.50
2019-02-17T11:21:49.409Z,24.72
2019-02-17T11:26:53.113Z,23.35
2019-02-17T11:31:56.916Z,22.37
2019-02-17T11:37:00.653Z,22.98
2019-02-17T11:42:04.478Z,23.22
2019-02-17T11:47:08.294Z,21.93
2019-02-17T11:52:12.067Z,20.32
2019-02-17T11:57:15.790Z,19.52
2019-02-17T12:02:25.081Z,21.17
2019-02-17T12:07:25.185Z,20.08
2019-02-17T12:12:28.870Z,19.00
2019-02-17T12:17:32.564Z,19.55
2019-02-17T12:22:41.278Z,18.70
2019-02-17T12:28:06.896Z,18.40
2019-02-17T12:33:18.307Z,18.87
2019-02-17T12:38:16.025Z,15.65
2019-02-17T12:43:19.940Z,16.73
2019-02-17T12:48:23.653Z,15.48
2019-02-17T12:53:27.329Z,15.53
2019-02-17T12:58:31.032Z,14.90
2019-02-17T13:03:34.693Z,14.55
2019-02-17T13:08:38.492Z,13.60
2019-02-17T13:13:42.226Z,13.55
2019-02-17T13:18:46.254Z,13.15
2019-02-17T13:23:50.205Z,12.30
2019-02-17T13:28:53.892Z,13.60
2019-02-17T13:33:57.585Z,13.43
2019-02-17T13:39:01.265Z,15.08
2019-02-17T13:44:05.025Z,14.38
2019-02-17T13:49:09.256Z,14.27
2019-02-17T13:54:12.931Z,15.07
2019-02-17T13:59:16.970Z,14.85
2019-02-17T14:04:20.693Z,15.30
2019-02-17T14:09:24.824Z,17.35
2019-02-17T14:14:28.544Z,16.40
2019-02-17T14:19:32.261Z,17.10
2019-02-17T14:24:35.965Z,16.57
2019-02-17T14:29:39.992Z,16.82
2019-02-17T14:34:43.769Z,16.10
2019-02-17T14:39:47.553Z,16.67
2019-02-17T14:44:51.887Z,17.20
2019-02-17T14:49:55.613Z,17.13
2019-02-17T14:54:59.326Z,16.67
2019-02-17T15:00:03.052Z,17.80
2019-02-17T15:05:07.515Z,16.73
2019-02-17T15:10:11.266Z,17.17
2019-02-17T15:15:15.387Z,18.63
2019-02-17T15:20:19.124Z,16.93
2019-02-17T15:25:22.806Z,19.10
2019-02-17T15:30:27.191Z,18.10
2019-02-17T15:35:30.885Z,16.63
2019-02-17T15:40:34.810Z,18.30
2019-02-17T15:45:38.518Z,18.57
2019-02-17T15:50:42.219Z,19.00
2019-02-17T15:55:45.913Z,18.53
2019-02-17T16:00:49.611Z,19.43
2019-02-17T16:05:53.369Z,18.50
2019-02-17T16:10:57.031Z,17.63
2019-02-17T16:16:00.726Z,19.90
2019-02-17T16:21:04.549Z,20.20
2019-02-17T16:26:08.261Z,20.17
2019-02-17T16:31:11.953Z,22.23
2019-02-17T16:36:15.710Z,24.17
2019-02-17T16:41:19.703Z,25.93
2019-02-17T16:46:23.726Z,25.67
2019-02-17T16:51:27.727Z,23.47
2019-02-17T16:56:31.650Z,23.13
2019-02-17T17:01:35.414Z,25.73
2019-02-17T17:06:39.125Z,26.33
2019-02-17T17:11:42.831Z,26.10
2019-02-17T17:16:46.533Z,26.70
2019-02-17T17:21:50.272Z,26.47
2019-02-17T17:26:53.999Z,28.80
2019-02-17T17:31:58.000Z,26.23
2019-02-17T17:37:01.707Z,28.43
2019-02-17T17:42:05.797Z,28.87
2019-02-17T17:47:11.323Z,27.90
2019-02-17T17:52:15.824Z,30.30
2019-02-17T17:57:19.498Z,30.10
2019-02-17T18:02:23.206Z,29.90
2019-02-17T18:07:26.954Z,29.27
2019-02-17T18:12:30.697Z,30.20
2019-02-17T18:17:34.466Z,29.67
2019-02-17T18:22:38.578Z,30.40
2019-02-17T18:27:49.058Z,29.47
2019-02-17T18:32:53.349Z,30.83
2019-02-17T18:37:57.435Z,31.43
2019-02-17T18:43:01.437Z,30.50
2019-02-17T18:48:05.168Z,30.37
2019-02-17T18:53:08.865Z,30.23
2019-02-17T18:58:12.553Z,30.87
2019-02-17T19:03:16.262Z,31.27
2019-02-17T19:08:19.946Z,29.27
2019-02-17T19:13:23.751Z,31.90
2019-02-17T19:18:27.449Z,29.27
2019-02-17T19:23:31.137Z,30.70
2019-02-17T19:28:35.299Z,30.83
2019-02-17T19:33:39.069Z,30.80
2019-02-17T19:38:43.566Z,30.47
2019-02-17T19:43:47.296Z,30.53
2019-02-17T19:48:51.065Z,30.43
2019-02-17T19:53:55.912Z,30.50
2019-02-17T19:59:00.049Z,30.23
2019-02-17T20:04:10.016Z,29.80
2019-02-17T20:09:20.082Z,29.63
2019-02-17T20:14:31.745Z,31.10
2019-02-17T20:19:35.864Z,29.63
2019-02-17T20:24:39.555Z,29.00
2019-02-17T20:29:43.368Z,29.17
2019-02-17T20:34:47.341Z,31.23
2019-02-17T20:39:51.401Z,29.50
2019-02-17T20:44:55.096Z,31.10
2019-02-17T20:49:59.143Z,28.43
2019-02-17T20:55:02.816Z,30.63
2019-02-17T21:00:06.939Z,28.87
2019-02-17T21:05:10.788Z,28.80
2019-02-17T21:10:14.610Z,27.53
2019-02-17T21:15:20.403Z,29.13
2019-02-17T21:20:24.865Z,29.67
2019-02-17T21:25:28.829Z,28.03
2019-02-17T21:30:33.404Z,28.70
2019-02-17T21:35:37.331Z,28.67
2019-02-17T21:40:41.407Z,28.77
2019-02-17T21:45:45.164Z,29.67
2019-02-17T21:50:48.908Z,29.00
2019-02-17T21:55:52.790Z,28.37
2019-02-17T22:00:56.903Z,39.47
2019-02-17T22:06:00.684Z,30.60
2019-02-17T22:11:07.752Z,30.37
2019-02-17T22:16:15.148Z,30.47
2019-02-17T22:21:18.937Z,30.87
2019-02-17T22:26:22.654Z,29.03
2019-02-17T22:31:26.607Z,28.93
2019-02-17T22:36:30.920Z,29.20
2019-02-17T22:41:34.645Z,30.80
2019-02-17T22:46:38.342Z,28.53
2019-02-17T22:51:42.080Z,29.90
2019-02-17T22:56:45.799Z,30.00
2019-02-17T23:01:49.974Z,30.33
2019-02-17T23:06:54.485Z,29.33
2019-02-17T23:11:58.583Z,29.23
2019-02-17T23:17:02.300Z,28.30
2019-02-17T23:22:06.012Z,29.70
2019-02-17T23:27:09.967Z,30.07
2019-02-17T23:32:13.709Z,29.53
2019-02-17T23:37:17.757Z,30.70
2019-02-17T23:42:21.527Z,29.63
2019-02-17T23:47:25.240Z,28.67
2019-02-17T23:52:28.953Z,28.60
2019-02-17T23:57:33.102Z,28.87
